Time;durP1;ratioP1;P1;durP2;ratioP2;P2;SDS_P1;SDS_P2;PMS_P1;PMS_P2;Temp;Humidity;BMP_temperature;BMP_pressure;BME280_temperature;BME280_humidity;BME280_pressure;Samples;Min_cycle;Max_cycle;Signal;HPM_P1;HPM_P2
2022/07/21 06:33:36;;;;;;;1.13;1.02;;;;;;;-145.06;100.00;60892.56;6010820;22;20058;-92
2022/07/21 06:51:07;;;;;;;1.20;0.95;;;;;;;-145.06;100.00;60892.56;6025870;22;20434;-89
2022/07/21 06:53:55;;;;;;;1.63;1.20;;;;;;;-145.06;100.00;60892.56;6009293;23;20004;-90
2022/07/21 06:56:34;;;;;;;2.08;1.27;;;;;;;-145.06;100.00;60892.56;6007603;23;20031;-91
2022/07/21 06:59:13;;;;;;;2.25;1.25;;;;;;;-145.06;100.00;60892.56;6007344;23;20008;-90
2022/07/21 07:01:59;;;;;;;1.53;1.10;;;;;;;-145.06;100.00;60892.56;6007289;23;20004;-90
2022/07/21 07:04:44;;;;;;;1.10;0.85;;;;;;;-145.06;100.00;60892.56;6008976;23;20235;-92
2022/07/21 07:07:43;;;;;;;1.42;1.10;;;;;;;-145.06;100.00;60892.56;6007965;23;20004;-92
2022/07/21 07:10:28;;;;;;;1.88;1.10;;;;;;;-145.06;100.00;60892.56;6007711;23;20004;-91
2022/07/21 07:13:20;;;;;;;1.60;1.00;;;;;;;-145.06;100.00;60892.56;6007246;23;20028;-91
2022/07/21 07:16:06;;;;;;;1.13;1.02;;;;;;;-145.06;100.00;60892.56;6007113;23;20075;-92
2022/07/21 07:18:48;;;;;;;0.80;0.80;;;;;;;-145.06;100.00;60892.56;6007174;23;20008;-91
2022/07/21 07:22:00;;;;;;;0.90;0.70;;;;;;;-145.06;100.00;60892.56;6006930;23;20000;-91
2022/07/21 07:24:47;;;;;;;0.90;0.80;;;;;;;-145.06;100.00;60892.56;6007466;23;20363;-90
2022/07/21 12:40:37;;;;;;;2.53;1.73;;;;;;;-145.06;100.00;60892.56;6008542;22;20022;31
2022/07/21 12:43:30;;;;;;;1.98;1.77;;;;;;;-145.06;100.00;60892.56;5979591;23;20020;-90
2022/07/21 12:46:18;;;;;;;2.13;1.88;;;;;;;-145.06;100.00;60892.56;5951181;23;20004;-90
2022/07/21 12:49:17;;;;;;;3.60;2.25;;;;;;;-145.06;100.00;60892.56;5951120;23;20447;-92
2022/07/21 12:51:57;;;;;;;3.33;2.20;;;;;;;-145.06;100.00;60892.56;5950452;23;19997;-92
2022/07/21 12:54:39;;;;;;;2.70;2.35;;;;;;;-145.06;100.00;60892.56;5951145;23;20001;-91
2022/07/21 12:57:20;;;;;;;3.53;2.70;;;;;;;-145.06;100.00;60892.56;5950232;23;20004;-90
2022/07/21 13:00:07;;;;;;;3.17;2.25;;;;;;;-145.06;100.00;60892.56;5950624;23;20001;-91
2022/07/21 13:02:55;;;;;;;3.35;2.55;;;;;;;-145.06;100.00;60892.56;5949407;23;20084;-91
2022/07/21 13:05:43;;;;;;;4.05;2.97;;;;;;;-145.06;100.00;60892.56;5950149;23;20432;-92
2022/07/21 13:08:22;;;;;;;3.40;2.97;;;;;;;-145.06;100.00;60892.56;5949635;23;20443;-91
2022/07/21 13:11:02;;;;;;;3.72;2.78;;;;;;;-145.06;100.00;60892.56;5949676;23;20009;-91
2022/07/21 13:16:29;;;;;;;1.67;1.40;;;;;;;-145.06;100.00;60892.56;5975288;23;20025;-92
2022/07/21 13:19:09;;;;;;;1.60;1.10;;;;;;;-145.06;100.00;60892.56;5950593;23;20004;-92
2022/07/21 13:22:00;;;;;;;1.27;1.10;;;;;;;-145.06;100.00;60892.56;5951164;23;20005;-93
2022/07/21 13:24:44;;;;;;;1.92;0.80;;;;;;;-145.06;100.00;60892.56;5939451;23;20024;-90
2022/07/21 13:27:23;;;;;;;1.00;0.80;;;;;;;-145.06;100.00;60892.56;5921699;23;20061;-90
2022/07/21 13:30:07;;;;;;;1.00;0.90;;;;;;;-145.06;100.00;60892.56;5921573;23;20006;-92
2022/07/21 13:32:46;;;;;;;1.48;0.90;;;;;;;-145.06;100.00;60892.56;5921417;23;20241;-91
2022/07/21 13:35:44;;;;;;;0.93;0.70;;;;;;;-145.06;100.00;60892.56;5921621;23;20009;-91
2022/07/21 13:38:23;;;;;;;1.20;1.10;;;;;;;-145.06;100.00;60892.56;5921687;23;20009;-91
2022/07/21 13:41:02;;;;;;;2.03;1.40;;;;;;;-145.06;100.00;60892.56;5920238;23;20009;-92
2022/07/21 13:43:41;;;;;;;1.70;1.35;;;;;;;-145.06;100.00;60892.56;5920995;23;20005;-92
2022/07/21 13:46:20;;;;;;;1.88;1.30;;;;;;;-145.06;100.00;60892.56;5920836;23;20005;-91
2022/07/21 13:49:00;;;;;;;1.88;1.40;;;;;;;-145.06;100.00;60892.56;5921384;23;20039;-91
2022/07/21 13:51:41;;;;;;;3.80;2.35;;;;;;;-145.06;100.00;60892.56;5930393;23;20380;-91
2022/07/21 13:54:20;;;;;;;3.00;1.98;;;;;;;-145.06;100.00;60892.56;5921041;23;20009;-91
2022/07/21 13:56:59;;;;;;;2.38;1.90;;;;;;;-145.06;100.00;60892.56;5920924;23;20006;-91
2022/07/21 13:59:38;;;;;;;2.63;1.58;;;;;;;-145.06;100.00;60892.56;5921048;23;20005;-90
2022/07/21 14:02:17;;;;;;;4.45;2.30;;;;;;;-145.06;100.00;60892.56;5920966;23;20005;-90
2022/07/21 14:04:56;;;;;;;3.77;1.90;;;;;;;-145.06;100.00;60892.56;5920986;23;20013;-91
2022/07/21 14:07:35;;;;;;;3.23;2.00;;;;;;;-145.06;100.00;60892.56;5921338;23;20005;-93
2022/07/21 14:10:14;;;;;;;2.53;1.80;;;;;;;-145.06;100.00;60892.56;5921125;23;20229;-92
2022/07/21 14:12:53;;;;;;;2.70;1.88;;;;;;;-145.06;100.00;60892.56;5922002;23;20005;-91
2022/07/21 14:15:32;;;;;;;2.37;1.80;;;;;;;-145.06;100.00;60892.56;5921675;23;20443;-90
2022/07/21 14:18:12;;;;;;;2.92;1.90;;;;;;;-145.06;100.00;60892.56;5939897;23;20237;-92
2022/07/21 14:20:47;;;;;;;2.78;2.15;;;;;;;-145.06;100.00;60892.56;5986892;22;20022;-90
2022/07/21 14:23:30;;;;;;;2.67;1.75;;;;;;;-145.06;100.00;60892.56;6007807;23;20008;-91
2022/07/21 14:26:12;;;;;;;2.03;1.70;;;;;;;-145.06;100.00;60892.56;5978510;23;20004;-90
2022/07/21 14:28:51;;;;;;;2.10;1.60;;;;;;;-145.06;100.00;60892.56;5979012;23;20004;-91
2022/07/21 14:31:30;;;;;;;2.67;1.90;;;;;;;-145.06;100.00;60892.56;5978703;23;20292;-91
2022/07/21 14:34:09;;;;;;;2.17;1.60;;;;;;;-145.06;100.00;60892.56;5978499;23;20009;-91
2022/07/21 14:36:57;;;;;;;2.90;1.55;;;;;;;-145.06;100.00;60892.56;5978324;23;20423;-91
2022/07/21 14:39:36;;;;;;;2.10;1.58;;;;;;;-145.06;100.00;60892.56;5978681;23;20008;-91
2022/07/21 14:42:25;;;;;;;2.45;1.80;;;;;;;-145.06;100.00;60892.56;5980454;23;20013;-91
2022/07/21 14:45:06;;;;;;;;;;;;;;;-145.06;100.00;60892.56;5981177;23;20008;-91
2022/07/21 14:47:51;;;;;;;3.08;1.98;;;;;;;-145.06;100.00;60892.56;5980172;23;20431;-91
2022/07/21 14:50:44;;;;;;;2.97;1.60;;;;;;;-145.06;100.00;60892.56;5980659;23;20004;-91
2022/07/21 14:53:42;;;;;;;2.78;2.08;;;;;;;-145.06;100.00;60892.56;5980656;23;20000;-91
2022/07/21 14:56:27;;;;;;;2.13;1.77;;;;;;;-145.06;100.00;60892.56;5980501;23;20012;-91
2022/07/21 15:02:38;;;;;;;3.35;2.00;;;;;;;-145.06;100.00;60892.56;5990384;23;20009;-91
2022/07/21 15:05:43;;;;;;;2.70;1.73;;;;;;;-145.06;100.00;60892.56;5980990;23;20001;-90
2022/07/21 15:09:03;;;;;;;6.13;1.33;;;;;;;-145.06;100.00;60892.56;5980838;23;20004;-91
2022/07/21 15:12:37;;;;;;;;;;;;;;;;;;;;;
2022/07/21 17:27:19;;;;;;;1.70;1.40;;;;;;;-145.06;100.00;60892.56;6025651;22;20347;-93
2022/07/21 17:30:53;;;;;;;1.85;1.50;;;;;;;-145.06;100.00;60892.56;6010611;23;20008;-92
2022/07/21 17:34:11;;;;;;;2.90;1.77;;;;;;;-145.06;100.00;60892.56;6003423;23;20056;-92
